sensor_id;sensor_type;location;lat;lon;timestamp;temperature;humidity
38866;DHT22;62686;48.984;8.394;2023-07-08T00:02:16;21.50;88.20
38866;DHT22;62686;48.984;8.394;2023-07-08T00:04:45;22.00;85.50
38866;DHT22;62686;48.984;8.394;2023-07-08T00:07:22;22.20;85.90
38866;DHT22;62686;48.984;8.394;2023-07-08T00:09:50;22.40;84.70
38866;DHT22;62686;48.984;8.394;2023-07-08T00:12:19;22.50;84.80
38866;DHT22;62686;48.984;8.394;2023-07-08T00:14:47;22.50;84.20
38866;DHT22;62686;48.984;8.394;2023-07-08T00:17:15;22.60;83.10
38866;DHT22;62686;48.984;8.394;2023-07-08T00:19:43;22.70;82.50
38866;DHT22;62686;48.984;8.394;2023-07-08T00:22:14;22.60;81.80
38866;DHT22;62686;48.984;8.394;2023-07-08T00:24:42;22.80;81.90
38866;DHT22;62686;48.984;8.394;2023-07-08T00:27:12;22.80;82.10
38866;DHT22;62686;48.984;8.394;2023-07-08T00:29:41;22.90;80.10
38866;DHT22;62686;48.984;8.394;2023-07-08T00:32:14;23.40;77.70
38866;DHT22;62686;48.984;8.394;2023-07-08T00:34:42;23.60;75.90
38866;DHT22;62686;48.984;8.394;2023-07-08T00:37:12;23.90;76.10
38866;DHT22;62686;48.984;8.394;2023-07-08T00:39:41;24.20;74.10
38866;DHT22;62686;48.984;8.394;2023-07-08T00:42:15;24.30;73.50
38866;DHT22;62686;48.984;8.394;2023-07-08T00:44:44;24.30;74.40
38866;DHT22;62686;48.984;8.394;2023-07-08T00:47:15;24.40;72.40
38866;DHT22;62686;48.984;8.394;2023-07-08T00:49:47;24.50;73.40
38866;DHT22;62686;48.984;8.394;2023-07-08T00:52:23;24.30;74.00
38866;DHT22;62686;48.984;8.394;2023-07-08T00:54:54;24.00;76.00
38866;DHT22;62686;48.984;8.394;2023-07-08T00:57:25;23.70;79.00
38866;DHT22;62686;48.984;8.394;2023-07-08T00:59:58;23.40;78.50
38866;DHT22;62686;48.984;8.394;2023-07-08T01:02:28;23.20;78.50
38866;DHT22;62686;48.984;8.394;2023-07-08T01:05:03;22.90;81.60
38866;DHT22;62686;48.984;8.394;2023-07-08T01:07:33;22.50;83.10
38866;DHT22;62686;48.984;8.394;2023-07-08T01:10:06;22.10;84.30
38866;DHT22;62686;48.984;8.394;2023-07-08T01:12:42;21.80;84.00
38866;DHT22;62686;48.984;8.394;2023-07-08T01:15:11;21.50;84.90
38866;DHT22;62686;48.984;8.394;2023-07-08T01:17:42;21.30;87.90
38866;DHT22;62686;48.984;8.394;2023-07-08T01:20:12;21.20;87.10
38866;DHT22;62686;48.984;8.394;2023-07-08T01:22:44;21.10;86.40
38866;DHT22;62686;48.984;8.394;2023-07-08T01:25:13;21.00;87.40
38866;DHT22;62686;48.984;8.394;2023-07-08T01:27:45;20.80;87.70
38866;DHT22;62686;48.984;8.394;2023-07-08T01:30:14;20.70;90.40
38866;DHT22;62686;48.984;8.394;2023-07-08T01:32:47;20.50;90.60
38866;DHT22;62686;48.984;8.394;2023-07-08T01:35:17;20.40;90.20
38866;DHT22;62686;48.984;8.394;2023-07-08T01:37:50;20.30;90.40
38866;DHT22;62686;48.984;8.394;2023-07-08T01:40:26;20.40;90.00
38866;DHT22;62686;48.984;8.394;2023-07-08T01:42:55;20.40;90.00
38866;DHT22;62686;48.984;8.394;2023-07-08T01:45:25;20.40;90.10
38866;DHT22;62686;48.984;8.394;2023-07-08T01:48:01;20.40;90.40
38866;DHT22;62686;48.984;8.394;2023-07-08T01:50:31;20.30;90.20
38866;DHT22;62686;48.984;8.394;2023-07-08T01:53:05;20.20;91.50
38866;DHT22;62686;48.984;8.394;2023-07-08T01:55:36;20.10;91.90
38866;DHT22;62686;48.984;8.394;2023-07-08T01:58:04;19.90;92.70
38866;DHT22;62686;48.984;8.394;2023-07-08T02:00:32;19.70;94.10
38866;DHT22;62686;48.984;8.394;2023-07-08T02:03:00;19.50;94.00
38866;DHT22;62686;48.984;8.394;2023-07-08T02:05:28;19.50;93.60
38866;DHT22;62686;48.984;8.394;2023-07-08T02:07:57;19.40;93.30
38866;DHT22;62686;48.984;8.394;2023-07-08T02:10:27;19.40;93.30
38866;DHT22;62686;48.984;8.394;2023-07-08T02:12:55;19.40;93.10
38866;DHT22;62686;48.984;8.394;2023-07-08T02:15:24;19.50;93.40
38866;DHT22;62686;48.984;8.394;2023-07-08T02:17:53;19.40;93.20
38866;DHT22;62686;48.984;8.394;2023-07-08T02:20:21;19.40;93.30
38866;DHT22;62686;48.984;8.394;2023-07-08T02:22:50;19.40;93.30
38866;DHT22;62686;48.984;8.394;2023-07-08T02:25:18;19.40;93.10
38866;DHT22;62686;48.984;8.394;2023-07-08T02:27:47;19.30;93.20
38866;DHT22;62686;48.984;8.394;2023-07-08T02:30:16;19.10;94.50
38866;DHT22;62686;48.984;8.394;2023-07-08T02:32:44;19.00;94.70
38866;DHT22;62686;48.984;8.394;2023-07-08T02:35:24;18.90;95.20
38866;DHT22;62686;48.984;8.394;2023-07-08T02:37:53;19.00;95.90
38866;DHT22;62686;48.984;8.394;2023-07-08T02:40:22;19.00;96.30
38866;DHT22;62686;48.984;8.394;2023-07-08T02:42:52;18.90;96.50
38866;DHT22;62686;48.984;8.394;2023-07-08T02:45:21;18.80;98.40
38866;DHT22;62686;48.984;8.394;2023-07-08T02:47:49;18.70;98.00
38866;DHT22;62686;48.984;8.394;2023-07-08T02:50:17;18.70;98.60
38866;DHT22;62686;48.984;8.394;2023-07-08T02:52:45;18.60;99.80
38866;DHT22;62686;48.984;8.394;2023-07-08T02:55:14;18.50;99.90
38866;DHT22;62686;48.984;8.394;2023-07-08T02:57:42;18.30;99.90
38866;DHT22;62686;48.984;8.394;2023-07-08T03:00:13;18.20;99.90
38866;DHT22;62686;48.984;8.394;2023-07-08T03:02:41;18.00;99.90
38866;DHT22;62686;48.984;8.394;2023-07-08T03:05:10;17.90;99.90
38866;DHT22;62686;48.984;8.394;2023-07-08T03:07:38;17.80;99.90
38866;DHT22;62686;48.984;8.394;2023-07-08T03:10:07;17.70;99.90
38866;DHT22;62686;48.984;8.394;2023-07-08T03:12:35;17.60;99.90
38866;DHT22;62686;48.984;8.394;2023-07-08T03:15:04;17.60;99.90
38866;DHT22;62686;48.984;8.394;2023-07-08T03:17:35;17.60;99.90
38866;DHT22;62686;48.984;8.394;2023-07-08T03:20:03;17.50;99.90
38866;DHT22;62686;48.984;8.394;2023-07-08T03:22:33;17.50;99.90
38866;DHT22;62686;48.984;8.394;2023-07-08T03:25:01;17.40;99.90
38866;DHT22;62686;48.984;8.394;2023-07-08T03:27:29;17.50;99.90
38866;DHT22;62686;48.984;8.394;2023-07-08T03:29:57;17.50;99.90
38866;DHT22;62686;48.984;8.394;2023-07-08T03:32:26;17.60;99.90
38866;DHT22;62686;48.984;8.394;2023-07-08T03:34:55;17.70;99.90
38866;DHT22;62686;48.984;8.394;2023-07-08T03:37:23;17.80;99.90
38866;DHT22;62686;48.984;8.394;2023-07-08T03:39:52;17.90;99.90
38866;DHT22;62686;48.984;8.394;2023-07-08T03:42:20;17.90;99.90
38866;DHT22;62686;48.984;8.394;2023-07-08T03:44:49;17.90;99.90
38866;DHT22;62686;48.984;8.394;2023-07-08T03:47:17;17.90;99.90
38866;DHT22;62686;48.984;8.394;2023-07-08T03:49:45;17.90;99.90
38866;DHT22;62686;48.984;8.394;2023-07-08T03:52:16;18.00;99.90
38866;DHT22;62686;48.984;8.394;2023-07-08T03:54:45;18.10;99.90
38866;DHT22;62686;48.984;8.394;2023-07-08T03:57:13;18.20;99.90
38866;DHT22;62686;48.984;8.394;2023-07-08T03:59:42;18.40;99.90
38866;DHT22;62686;48.984;8.394;2023-07-08T04:02:10;18.50;99.90
38866;DHT22;62686;48.984;8.394;2023-07-08T04:04:39;18.70;99.90
38866;DHT22;62686;48.984;8.394;2023-07-08T04:07:07;18.90;99.90
38866;DHT22;62686;48.984;8.394;2023-07-08T04:09:37;19.10;99.90
38866;DHT22;62686;48.984;8.394;2023-07-08T04:12:05;19.20;99.90
38866;DHT22;62686;48.984;8.394;2023-07-08T04:14:34;19.40;99.90
38866;DHT22;62686;48.984;8.394;2023-07-08T04:17:03;19.70;99.90
38866;DHT22;62686;48.984;8.394;2023-07-08T04:19:31;19.90;99.90
38866;DHT22;62686;48.984;8.394;2023-07-08T04:22:01;20.00;99.90
38866;DHT22;62686;48.984;8.394;2023-07-08T04:24:30;20.30;99.90
38866;DHT22;62686;48.984;8.394;2023-07-08T04:26:59;20.90;99.90
38866;DHT22;62686;48.984;8.394;2023-07-08T04:29:28;21.60;99.90
38866;DHT22;62686;48.984;8.394;2023-07-08T04:31:56;22.20;99.90
38866;DHT22;62686;48.984;8.394;2023-07-08T04:34:24;22.90;99.90
38866;DHT22;62686;48.984;8.394;2023-07-08T04:36:52;23.50;99.90
38866;DHT22;62686;48.984;8.394;2023-07-08T04:39:20;24.00;99.90
38866;DHT22;62686;48.984;8.394;2023-07-08T04:41:49;24.50;99.90
38866;DHT22;62686;48.984;8.394;2023-07-08T04:44:19;25.00;99.90
38866;DHT22;62686;48.984;8.394;2023-07-08T04:46:50;25.40;98.10
38866;DHT22;62686;48.984;8.394;2023-07-08T04:49:20;25.80;96.20
38866;DHT22;62686;48.984;8.394;2023-07-08T04:51:48;25.50;96.10
38866;DHT22;62686;48.984;8.394;2023-07-08T04:54:17;25.50;95.20
38866;DHT22;62686;48.984;8.394;2023-07-08T04:56:47;26.00;94.20
38866;DHT22;62686;48.984;8.394;2023-07-08T04:59:20;26.10;94.10
38866;DHT22;62686;48.984;8.394;2023-07-08T05:01:48;26.10;94.50
38866;DHT22;62686;48.984;8.394;2023-07-08T05:04:19;25.60;95.30
38866;DHT22;62686;48.984;8.394;2023-07-08T05:06:49;25.40;95.80
38866;DHT22;62686;48.984;8.394;2023-07-08T05:09:17;25.00;96.70
38866;DHT22;62686;48.984;8.394;2023-07-08T05:11:46;24.70;98.00
38866;DHT22;62686;48.984;8.394;2023-07-08T05:14:14;24.30;98.50
38866;DHT22;62686;48.984;8.394;2023-07-08T05:16:44;23.90;99.20
38866;DHT22;62686;48.984;8.394;2023-07-08T05:19:12;23.70;99.90
38866;DHT22;62686;48.984;8.394;2023-07-08T05:21:41;23.90;99.90
38866;DHT22;62686;48.984;8.394;2023-07-08T05:24:12;25.00;99.00
38866;DHT22;62686;48.984;8.394;2023-07-08T05:26:40;26.10;96.80
38866;DHT22;62686;48.984;8.394;2023-07-08T05:29:08;27.30;95.40
38866;DHT22;62686;48.984;8.394;2023-07-08T05:31:37;28.20;92.20
38866;DHT22;62686;48.984;8.394;2023-07-08T05:34:13;28.80;90.30
38866;DHT22;62686;48.984;8.394;2023-07-08T05:36:42;29.50;88.00
38866;DHT22;62686;48.984;8.394;2023-07-08T05:39:10;30.30;86.90
38866;DHT22;62686;48.984;8.394;2023-07-08T05:41:38;31.20;82.50
38866;DHT22;62686;48.984;8.394;2023-07-08T05:44:07;31.50;80.80
38866;DHT22;62686;48.984;8.394;2023-07-08T05:46:35;32.20;80.00
38866;DHT22;62686;48.984;8.394;2023-07-08T05:49:03;32.10;77.10
38866;DHT22;62686;48.984;8.394;2023-07-08T05:51:33;32.30;77.50
38866;DHT22;62686;48.984;8.394;2023-07-08T05:54:02;32.30;75.30
38866;DHT22;62686;48.984;8.394;2023-07-08T05:56:30;32.40;75.40
38866;DHT22;62686;48.984;8.394;2023-07-08T05:58:58;32.60;77.20
38866;DHT22;62686;48.984;8.394;2023-07-08T06:01:27;33.10;76.80
38866;DHT22;62686;48.984;8.394;2023-07-08T06:03:55;33.50;71.90
38866;DHT22;62686;48.984;8.394;2023-07-08T06:06:25;33.60;74.40
38866;DHT22;62686;48.984;8.394;2023-07-08T06:08:55;32.60;74.20
38866;DHT22;62686;48.984;8.394;2023-07-08T06:11:23;32.00;79.40
38866;DHT22;62686;48.984;8.394;2023-07-08T06:13:52;31.70;81.00
38866;DHT22;62686;48.984;8.394;2023-07-08T06:16:20;31.50;77.10
38866;DHT22;62686;48.984;8.394;2023-07-08T06:18:53;31.60;77.90
38866;DHT22;62686;48.984;8.394;2023-07-08T06:21:22;31.80;78.70
38866;DHT22;62686;48.984;8.394;2023-07-08T06:23:50;32.10;77.30
38866;DHT22;62686;48.984;8.394;2023-07-08T06:26:19;33.10;76.10
38866;DHT22;62686;48.984;8.394;2023-07-08T06:28:48;33.80;75.50
38866;DHT22;62686;48.984;8.394;2023-07-08T06:31:16;34.50;74.00
38866;DHT22;62686;48.984;8.394;2023-07-08T06:33:44;33.50;73.70
38866;DHT22;62686;48.984;8.394;2023-07-08T06:36:13;33.70;75.30
38866;DHT22;62686;48.984;8.394;2023-07-08T06:38:41;34.00;74.50
38866;DHT22;62686;48.984;8.394;2023-07-08T06:41:09;33.40;78.50
38866;DHT22;62686;48.984;8.394;2023-07-08T06:43:39;33.40;77.60
38866;DHT22;62686;48.984;8.394;2023-07-08T06:46:08;33.60;76.40
38866;DHT22;62686;48.984;8.394;2023-07-08T06:48:36;33.40;76.20
38866;DHT22;62686;48.984;8.394;2023-07-08T06:51:04;32.80;77.80
38866;DHT22;62686;48.984;8.394;2023-07-08T06:53:32;32.10;79.60
38866;DHT22;62686;48.984;8.394;2023-07-08T06:56:00;31.50;80.10
38866;DHT22;62686;48.984;8.394;2023-07-08T06:58:29;30.70;83.00
38866;DHT22;62686;48.984;8.394;2023-07-08T07:00:59;30.00;84.60
38866;DHT22;62686;48.984;8.394;2023-07-08T07:03:27;29.20;86.90
38866;DHT22;62686;48.984;8.394;2023-07-08T07:05:55;29.40;90.00
38866;DHT22;62686;48.984;8.394;2023-07-08T07:08:23;29.60;88.10
38866;DHT22;62686;48.984;8.394;2023-07-08T07:10:51;29.80;88.70
38866;DHT22;62686;48.984;8.394;2023-07-08T07:13:19;30.30;86.00
38866;DHT22;62686;48.984;8.394;2023-07-08T07:15:48;31.00;85.00
38866;DHT22;62686;48.984;8.394;2023-07-08T07:18:19;31.80;83.40
38866;DHT22;62686;48.984;8.394;2023-07-08T07:20:49;31.80;85.30
38866;DHT22;62686;48.984;8.394;2023-07-08T07:23:18;32.30;87.90
38866;DHT22;62686;48.984;8.394;2023-07-08T07:25:46;33.30;83.60
38866;DHT22;62686;48.984;8.394;2023-07-08T07:28:15;32.70;82.70
38866;DHT22;62686;48.984;8.394;2023-07-08T07:30:45;31.70;85.00
38866;DHT22;62686;48.984;8.394;2023-07-08T07:33:13;31.50;86.00
38866;DHT22;62686;48.984;8.394;2023-07-08T07:35:44;31.40;86.30
38866;DHT22;62686;48.984;8.394;2023-07-08T07:38:14;31.30;86.80
38866;DHT22;62686;48.984;8.394;2023-07-08T07:40:43;32.40;82.30
38866;DHT22;62686;48.984;8.394;2023-07-08T07:43:11;33.30;85.40
38866;DHT22;62686;48.984;8.394;2023-07-08T07:45:40;34.50;80.90
38866;DHT22;62686;48.984;8.394;2023-07-08T07:48:08;35.80;77.30
38866;DHT22;62686;48.984;8.394;2023-07-08T07:50:36;36.90;77.10
38866;DHT22;62686;48.984;8.394;2023-07-08T07:53:06;37.70;70.30
38866;DHT22;62686;48.984;8.394;2023-07-08T07:55:35;37.50;69.20
38866;DHT22;62686;48.984;8.394;2023-07-08T07:58:03;37.80;67.60
38866;DHT22;62686;48.984;8.394;2023-07-08T08:00:32;37.50;66.90
38866;DHT22;62686;48.984;8.394;2023-07-08T08:03:00;36.30;72.80
38866;DHT22;62686;48.984;8.394;2023-07-08T08:05:28;36.70;71.80
38866;DHT22;62686;48.984;8.394;2023-07-08T08:07:57;38.20;69.10
38866;DHT22;62686;48.984;8.394;2023-07-08T08:10:28;38.80;66.80
38866;DHT22;62686;48.984;8.394;2023-07-08T08:12:56;38.30;66.40
38866;DHT22;62686;48.984;8.394;2023-07-08T08:15:25;38.60;65.90
38866;DHT22;62686;48.984;8.394;2023-07-08T08:17:53;38.70;67.90
38866;DHT22;62686;48.984;8.394;2023-07-08T08:20:24;38.60;65.20
38866;DHT22;62686;48.984;8.394;2023-07-08T08:22:52;38.80;64.70
38866;DHT22;62686;48.984;8.394;2023-07-08T08:25:23;39.00;62.40
38866;DHT22;62686;48.984;8.394;2023-07-08T08:27:53;38.80;58.70
38866;DHT22;62686;48.984;8.394;2023-07-08T08:30:22;39.10;62.30
38866;DHT22;62686;48.984;8.394;2023-07-08T08:32:50;39.40;60.40
38866;DHT22;62686;48.984;8.394;2023-07-08T08:35:18;38.80;56.20
38866;DHT22;62686;48.984;8.394;2023-07-08T08:37:47;37.50;59.60
38866;DHT22;62686;48.984;8.394;2023-07-08T08:40:17;37.50;59.80
38866;DHT22;62686;48.984;8.394;2023-07-08T08:42:53;37.70;59.40
38866;DHT22;62686;48.984;8.394;2023-07-08T08:45:26;38.10;60.10
38866;DHT22;62686;48.984;8.394;2023-07-08T08:47:59;38.60;63.50
38866;DHT22;62686;48.984;8.394;2023-07-08T08:50:33;38.50;58.70
38866;DHT22;62686;48.984;8.394;2023-07-08T08:53:06;38.20;58.90
38866;DHT22;62686;48.984;8.394;2023-07-08T08:55:37;38.40;59.20
38866;DHT22;62686;48.984;8.394;2023-07-08T08:58:16;38.30;58.40
38866;DHT22;62686;48.984;8.394;2023-07-08T09:00:53;38.70;58.60
38866;DHT22;62686;48.984;8.394;2023-07-08T09:03:46;39.10;57.60
38866;DHT22;62686;48.984;8.394;2023-07-08T09:06:19;39.00;56.80
38866;DHT22;62686;48.984;8.394;2023-07-08T09:08:50;39.20;54.80
38866;DHT22;62686;48.984;8.394;2023-07-08T09:11:27;39.80;55.70
38866;DHT22;62686;48.984;8.394;2023-07-08T09:13:58;40.20;56.10
38866;DHT22;62686;48.984;8.394;2023-07-08T09:16:34;39.00;56.50
38866;DHT22;62686;48.984;8.394;2023-07-08T09:19:09;39.10;58.80
38866;DHT22;62686;48.984;8.394;2023-07-08T09:21:43;38.30;56.90
38866;DHT22;62686;48.984;8.394;2023-07-08T09:24:17;38.20;54.60
38866;DHT22;62686;48.984;8.394;2023-07-08T09:26:47;38.20;55.80
38866;DHT22;62686;48.984;8.394;2023-07-08T09:29:18;38.40;57.10
38866;DHT22;62686;48.984;8.394;2023-07-08T09:31:46;39.00;56.30
38866;DHT22;62686;48.984;8.394;2023-07-08T09:34:20;38.60;53.80
38866;DHT22;62686;48.984;8.394;2023-07-08T09:36:51;38.10;54.50
38866;DHT22;62686;48.984;8.394;2023-07-08T09:39:20;38.90;54.00
38866;DHT22;62686;48.984;8.394;2023-07-08T09:41:49;38.60;53.30
38866;DHT22;62686;48.984;8.394;2023-07-08T09:44:24;38.60;53.00
38866;DHT22;62686;48.984;8.394;2023-07-08T09:46:54;38.90;55.90
38866;DHT22;62686;48.984;8.394;2023-07-08T09:49:27;38.80;55.20
38866;DHT22;62686;48.984;8.394;2023-07-08T09:51:56;38.30;54.40
38866;DHT22;62686;48.984;8.394;2023-07-08T09:54:25;37.20;56.40
38866;DHT22;62686;48.984;8.394;2023-07-08T09:57:01;36.90;55.10
38866;DHT22;62686;48.984;8.394;2023-07-08T09:59:36;36.90;58.60
38866;DHT22;62686;48.984;8.394;2023-07-08T10:02:25;37.20;55.70
38866;DHT22;62686;48.984;8.394;2023-07-08T10:04:57;36.80;56.70
38866;DHT22;62686;48.984;8.394;2023-07-08T10:07:28;36.80;56.60
38866;DHT22;62686;48.984;8.394;2023-07-08T10:09:59;37.40;57.50
38866;DHT22;62686;48.984;8.394;2023-07-08T10:12:30;37.60;56.90
38866;DHT22;62686;48.984;8.394;2023-07-08T10:15:01;38.30;57.30
38866;DHT22;62686;48.984;8.394;2023-07-08T10:17:33;38.20;54.70
38866;DHT22;62686;48.984;8.394;2023-07-08T10:20:07;38.00;57.90
38866;DHT22;62686;48.984;8.394;2023-07-08T10:22:46;38.40;58.00
38866;DHT22;62686;48.984;8.394;2023-07-08T10:25:26;37.50;56.70
38866;DHT22;62686;48.984;8.394;2023-07-08T10:28:03;37.50;57.90
38866;DHT22;62686;48.984;8.394;2023-07-08T10:30:41;37.00;57.50
38866;DHT22;62686;48.984;8.394;2023-07-08T10:33:20;36.60;58.30
38866;DHT22;62686;48.984;8.394;2023-07-08T10:36:09;35.00;59.40
38866;DHT22;62686;48.984;8.394;2023-07-08T10:38:48;33.80;63.20
38866;DHT22;62686;48.984;8.394;2023-07-08T10:41:26;33.70;68.00
38866;DHT22;62686;48.984;8.394;2023-07-08T10:44:04;33.10;65.30
38866;DHT22;62686;48.984;8.394;2023-07-08T10:46:41;32.60;68.80
38866;DHT22;62686;48.984;8.394;2023-07-08T10:49:38;32.20;67.20
38866;DHT22;62686;48.984;8.394;2023-07-08T10:52:23;32.00;74.50
38866;DHT22;62686;48.984;8.394;2023-07-08T10:58:04;31.50;73.20
38866;DHT22;62686;48.984;8.394;2023-07-08T11:00:46;31.20;70.40
38866;DHT22;62686;48.984;8.394;2023-07-08T11:03:32;31.30;74.50
38866;DHT22;62686;48.984;8.394;2023-07-08T11:06:06;31.80;72.90
38866;DHT22;62686;48.984;8.394;2023-07-08T11:08:40;32.00;72.00
38866;DHT22;62686;48.984;8.394;2023-07-08T11:11:18;32.20;74.50
38866;DHT22;62686;48.984;8.394;2023-07-08T11:13:54;32.40;75.40
38866;DHT22;62686;48.984;8.394;2023-07-08T11:16:26;32.60;71.60
38866;DHT22;62686;48.984;8.394;2023-07-08T11:19:03;33.10;71.90
38866;DHT22;62686;48.984;8.394;2023-07-08T11:21:35;33.50;72.10
38866;DHT22;62686;48.984;8.394;2023-07-08T11:24:12;34.10;67.30
38866;DHT22;62686;48.984;8.394;2023-07-08T11:26:45;35.90;64.10
38866;DHT22;62686;48.984;8.394;2023-07-08T11:29:18;37.00;63.00
38866;DHT22;62686;48.984;8.394;2023-07-08T11:31:49;38.20;61.00
38866;DHT22;62686;48.984;8.394;2023-07-08T11:34:18;38.90;57.60
38866;DHT22;62686;48.984;8.394;2023-07-08T11:36:48;39.70;60.20
38866;DHT22;62686;48.984;8.394;2023-07-08T11:39:31;39.30;56.40
38866;DHT22;62686;48.984;8.394;2023-07-08T11:42:30;39.00;55.60
38866;DHT22;62686;48.984;8.394;2023-07-08T11:45:08;39.40;55.90
38866;DHT22;62686;48.984;8.394;2023-07-08T11:47:45;37.90;55.90
38866;DHT22;62686;48.984;8.394;2023-07-08T11:50:19;39.30;59.50
38866;DHT22;62686;48.984;8.394;2023-07-08T11:52:53;40.20;56.10
38866;DHT22;62686;48.984;8.394;2023-07-08T11:55:26;39.50;55.70
38866;DHT22;62686;48.984;8.394;2023-07-08T11:58:00;39.70;56.80
38866;DHT22;62686;48.984;8.394;2023-07-08T12:00:31;40.70;56.10
38866;DHT22;62686;48.984;8.394;2023-07-08T12:03:04;41.40;53.50
38866;DHT22;62686;48.984;8.394;2023-07-08T12:05:45;40.70;53.60
38866;DHT22;62686;48.984;8.394;2023-07-08T12:08:15;41.80;53.60
38866;DHT22;62686;48.984;8.394;2023-07-08T12:10:50;42.10;56.40
38866;DHT22;62686;48.984;8.394;2023-07-08T12:13:22;42.70;53.10
38866;DHT22;62686;48.984;8.394;2023-07-08T12:15:51;43.20;56.40
38866;DHT22;62686;48.984;8.394;2023-07-08T12:18:22;42.90;52.30
38866;DHT22;62686;48.984;8.394;2023-07-08T12:20:55;41.90;52.20
38866;DHT22;62686;48.984;8.394;2023-07-08T12:23:26;41.80;51.80
38866;DHT22;62686;48.984;8.394;2023-07-08T12:25:57;41.80;53.10
38866;DHT22;62686;48.984;8.394;2023-07-08T12:28:26;41.80;52.70
38866;DHT22;62686;48.984;8.394;2023-07-08T12:30:54;42.50;52.10
38866;DHT22;62686;48.984;8.394;2023-07-08T12:33:29;41.80;51.40
38866;DHT22;62686;48.984;8.394;2023-07-08T12:35:59;41.10;52.20
38866;DHT22;62686;48.984;8.394;2023-07-08T12:38:31;40.90;52.50
38866;DHT22;62686;48.984;8.394;2023-07-08T12:41:05;40.60;52.90
38866;DHT22;62686;48.984;8.394;2023-07-08T12:43:33;41.20;52.70
38866;DHT22;62686;48.984;8.394;2023-07-08T12:46:02;41.60;53.60
38866;DHT22;62686;48.984;8.394;2023-07-08T12:48:31;41.70;52.20
38866;DHT22;62686;48.984;8.394;2023-07-08T12:51:02;42.20;53.00
38866;DHT22;62686;48.984;8.394;2023-07-08T12:53:31;41.20;52.70
38866;DHT22;62686;48.984;8.394;2023-07-08T12:56:02;42.10;51.60
38866;DHT22;62686;48.984;8.394;2023-07-08T12:58:33;40.30;52.50
38866;DHT22;62686;48.984;8.394;2023-07-08T13:01:03;40.30;53.40
38866;DHT22;62686;48.984;8.394;2023-07-08T13:03:37;41.50;53.70
38866;DHT22;62686;48.984;8.394;2023-07-08T13:06:07;41.60;51.30
38866;DHT22;62686;48.984;8.394;2023-07-08T13:08:38;42.00;51.60
38866;DHT22;62686;48.984;8.394;2023-07-08T13:11:08;41.50;52.10
38866;DHT22;62686;48.984;8.394;2023-07-08T13:13:40;41.70;51.60
38866;DHT22;62686;48.984;8.394;2023-07-08T13:16:11;42.40;52.20
38866;DHT22;62686;48.984;8.394;2023-07-08T13:18:40;42.10;50.70
38866;DHT22;62686;48.984;8.394;2023-07-08T13:21:12;41.80;51.50
38866;DHT22;62686;48.984;8.394;2023-07-08T13:23:42;42.00;52.20
38866;DHT22;62686;48.984;8.394;2023-07-08T13:26:16;41.90;52.60
38866;DHT22;62686;48.984;8.394;2023-07-08T13:28:45;42.30;52.80
38866;DHT22;62686;48.984;8.394;2023-07-08T13:31:18;42.70;50.40
38866;DHT22;62686;48.984;8.394;2023-07-08T13:33:50;42.70;51.20
38866;DHT22;62686;48.984;8.394;2023-07-08T13:36:22;42.00;52.10
38866;DHT22;62686;48.984;8.394;2023-07-08T13:38:51;41.90;50.80
38866;DHT22;62686;48.984;8.394;2023-07-08T13:41:22;42.40;51.60
38866;DHT22;62686;48.984;8.394;2023-07-08T13:43:51;41.00;51.40
38866;DHT22;62686;48.984;8.394;2023-07-08T13:46:28;41.70;52.30
38866;DHT22;62686;48.984;8.394;2023-07-08T13:49:00;42.50;52.10
38866;DHT22;62686;48.984;8.394;2023-07-08T13:51:32;43.30;49.40
38866;DHT22;62686;48.984;8.394;2023-07-08T13:54:08;43.20;51.60
38866;DHT22;62686;48.984;8.394;2023-07-08T13:56:41;43.00;51.30
38866;DHT22;62686;48.984;8.394;2023-07-08T13:59:11;43.00;50.10
38866;DHT22;62686;48.984;8.394;2023-07-08T14:01:42;42.60;49.90
38866;DHT22;62686;48.984;8.394;2023-07-08T14:04:13;42.00;50.70
38866;DHT22;62686;48.984;8.394;2023-07-08T14:06:41;42.30;50.80
38866;DHT22;62686;48.984;8.394;2023-07-08T14:09:13;43.20;50.20
38866;DHT22;62686;48.984;8.394;2023-07-08T14:11:44;43.30;49.60
38866;DHT22;62686;48.984;8.394;2023-07-08T14:14:13;42.70;48.50
38866;DHT22;62686;48.984;8.394;2023-07-08T14:16:44;42.20;49.70
38866;DHT22;62686;48.984;8.394;2023-07-08T14:19:15;41.80;49.80
38866;DHT22;62686;48.984;8.394;2023-07-08T14:21:44;41.90;49.30
38866;DHT22;62686;48.984;8.394;2023-07-08T14:24:14;41.30;50.40
38866;DHT22;62686;48.984;8.394;2023-07-08T14:26:44;40.60;52.00
38866;DHT22;62686;48.984;8.394;2023-07-08T14:29:13;40.40;50.50
38866;DHT22;62686;48.984;8.394;2023-07-08T14:31:41;39.70;51.60
38866;DHT22;62686;48.984;8.394;2023-07-08T14:34:13;41.10;52.60
38866;DHT22;62686;48.984;8.394;2023-07-08T14:36:44;42.00;51.20
38866;DHT22;62686;48.984;8.394;2023-07-08T14:39:13;42.00;48.90
38866;DHT22;62686;48.984;8.394;2023-07-08T14:41:44;42.30;50.70
38866;DHT22;62686;48.984;8.394;2023-07-08T14:44:20;42.50;48.40
38866;DHT22;62686;48.984;8.394;2023-07-08T14:46:49;42.40;51.80
38866;DHT22;62686;48.984;8.394;2023-07-08T14:49:20;42.30;50.80
38866;DHT22;62686;48.984;8.394;2023-07-08T14:51:49;42.20;49.30
38866;DHT22;62686;48.984;8.394;2023-07-08T14:54:17;41.40;49.20
38866;DHT22;62686;48.984;8.394;2023-07-08T14:56:48;40.70;50.60
38866;DHT22;62686;48.984;8.394;2023-07-08T14:59:19;40.70;51.10
38866;DHT22;62686;48.984;8.394;2023-07-08T15:01:48;40.70;52.30
38866;DHT22;62686;48.984;8.394;2023-07-08T15:04:18;40.60;50.90
38866;DHT22;62686;48.984;8.394;2023-07-08T15:06:46;40.50;52.10
38866;DHT22;62686;48.984;8.394;2023-07-08T15:09:15;40.60;50.60
38866;DHT22;62686;48.984;8.394;2023-07-08T15:11:44;40.90;50.20
38866;DHT22;62686;48.984;8.394;2023-07-08T15:14:18;41.10;51.00
38866;DHT22;62686;48.984;8.394;2023-07-08T15:16:47;41.10;51.60
38866;DHT22;62686;48.984;8.394;2023-07-08T15:19:17;40.80;49.90
38866;DHT22;62686;48.984;8.394;2023-07-08T15:21:46;40.20;50.60
38866;DHT22;62686;48.984;8.394;2023-07-08T15:24:15;40.10;51.80
38866;DHT22;62686;48.984;8.394;2023-07-08T15:26:46;40.10;51.30
38866;DHT22;62686;48.984;8.394;2023-07-08T15:29:18;40.60;50.90
38866;DHT22;62686;48.984;8.394;2023-07-08T15:31:47;40.50;52.70
38866;DHT22;62686;48.984;8.394;2023-07-08T15:34:17;40.00;50.80
38866;DHT22;62686;48.984;8.394;2023-07-08T15:36:46;39.30;52.60
38866;DHT22;62686;48.984;8.394;2023-07-08T15:39:14;39.30;52.30
38866;DHT22;62686;48.984;8.394;2023-07-08T15:41:43;38.80;52.60
38866;DHT22;62686;48.984;8.394;2023-07-08T15:44:13;38.40;53.70
38866;DHT22;62686;48.984;8.394;2023-07-08T15:46:45;38.10;57.90
38866;DHT22;62686;48.984;8.394;2023-07-08T15:49:15;38.00;55.70
38866;DHT22;62686;48.984;8.394;2023-07-08T15:51:44;38.10;53.70
38866;DHT22;62686;48.984;8.394;2023-07-08T15:54:15;38.60;53.50
38866;DHT22;62686;48.984;8.394;2023-07-08T15:56:43;38.90;54.70